Terminal Aerodrome Forecast
Issued by NWS

Current Version | Previous Version | Text Only | Print | Product List | Glossary On
Versions: 1 2 3 4 5 6 7 8 9 10 11 12 13 14 15 16 17 18 19 20 21 22 23 24
519 FTUS42 KRAH 262336 TAFRWI TAF KRWI 262336Z 2700/2724 22004KT P6SM SCT250 TEMPO 2708/2712 3SM BR FM271500 20008KT P6SM SCT050=

USA.gov is the U.S. government's official web portal to all federal, state and local government web resources and services.